createdAt,value
2023-02-17T00:01:39.370Z,114.28
2023-02-17T00:04:08.008Z,112.97
2023-02-17T00:06:36.859Z,115.00
2023-02-17T00:09:05.297Z,113.53
2023-02-17T00:11:34.319Z,113.93
2023-02-17T00:14:02.745Z,111.38
2023-02-17T00:16:31.652Z,112.10
2023-02-17T00:19:01.731Z,109.90
2023-02-17T00:21:31.771Z,111.53
2023-02-17T00:24:00.488Z,114.78
2023-02-17T00:26:29.499Z,113.55
2023-02-17T00:28:58.803Z,109.85
2023-02-17T00:31:27.664Z,114.50
2023-02-17T00:33:56.732Z,109.13
2023-02-17T00:36:26.534Z,108.43
2023-02-17T00:38:56.605Z,113.88
2023-02-17T00:41:26.856Z,112.82
2023-02-17T00:43:55.608Z,115.90
2023-02-17T00:46:25.041Z,114.70
2023-02-17T00:48:54.139Z,120.55
2023-02-17T00:51:23.066Z,114.95
2023-02-17T00:53:51.869Z,113.75
2023-02-17T00:56:21.099Z,113.97
2023-02-17T00:58:49.665Z,114.63
2023-02-17T01:01:18.805Z,116.65
2023-02-17T01:03:47.307Z,118.88
2023-02-17T01:06:31.509Z,110.93
2023-02-17T01:09:00.154Z,120.45
2023-02-17T01:11:31.260Z,113.90
2023-02-17T01:14:00.499Z,122.88
2023-02-17T01:16:35.329Z,119.50
2023-02-17T01:19:07.396Z,116.78
2023-02-17T01:21:36.788Z,116.25
2023-02-17T01:24:06.637Z,114.47
2023-02-17T01:26:39.362Z,116.90
2023-02-17T01:29:08.194Z,119.07
2023-02-17T01:31:37.481Z,118.03
2023-02-17T01:34:06.278Z,124.97
2023-02-17T01:36:35.168Z,116.03
2023-02-17T01:39:03.905Z,117.20
2023-02-17T01:41:33.103Z,118.63
2023-02-17T01:44:28.082Z,117.07
2023-02-17T01:46:57.008Z,115.25
2023-02-17T01:49:38.327Z,117.45
2023-02-17T01:52:13.173Z,114.57
2023-02-17T01:54:47.934Z,119.60
2023-02-17T01:57:20.220Z,116.32
2023-02-17T01:59:48.830Z,114.15
2023-02-17T02:02:17.776Z,115.45
2023-02-17T02:04:48.547Z,116.10
2023-02-17T02:09:54.211Z,113.57
2023-02-17T02:12:32.404Z,127.05
2023-02-17T02:15:22.851Z,123.00
2023-02-17T02:18:02.004Z,113.03
2023-02-17T02:20:51.847Z,117.82
2023-02-17T02:23:52.664Z,118.72
2023-02-17T02:26:57.945Z,121.75
2023-02-17T02:29:43.015Z,119.93
2023-02-17T02:32:42.292Z,121.78
2023-02-17T02:35:25.916Z,120.63
2023-02-17T02:38:10.586Z,120.00
2023-02-17T02:40:45.246Z,119.65
2023-02-17T02:43:15.831Z,120.85
2023-02-17T02:45:44.784Z,114.65
2023-02-17T02:48:13.526Z,120.70
2023-02-17T02:51:06.871Z,124.32
2023-02-17T02:54:00.954Z,115.82
2023-02-17T02:57:11.936Z,127.15
2023-02-17T03:00:10.773Z,122.78
2023-02-17T03:03:17.729Z,126.45
2023-02-17T03:05:56.293Z,120.50
2023-02-17T03:08:49.855Z,124.22
2023-02-17T03:11:32.561Z,123.55
2023-02-17T03:14:10.665Z,117.93
2023-02-17T03:16:40.947Z,118.60
2023-02-17T03:19:10.365Z,120.70
2023-02-17T03:21:51.317Z,113.45
2023-02-17T03:24:20.282Z,120.05
2023-02-17T03:26:48.784Z,116.10
2023-02-17T03:29:19.095Z,117.53
2023-02-17T03:31:47.700Z,117.10
2023-02-17T03:34:16.792Z,122.40
2023-02-17T03:36:45.302Z,125.72
2023-02-17T03:39:14.216Z,113.10
2023-02-17T03:41:43.034Z,115.03
2023-02-17T03:44:12.000Z,125.35
2023-02-17T03:46:41.233Z,117.85
2023-02-17T03:49:12.159Z,121.00
2023-02-17T03:51:41.514Z,123.25
2023-02-17T03:54:10.434Z,119.20
2023-02-17T03:56:38.964Z,123.40
2023-02-17T03:59:07.947Z,118.40
2023-02-17T04:01:36.603Z,118.65
2023-02-17T04:04:05.802Z,123.88
2023-02-17T04:06:34.350Z,123.35
2023-02-17T04:09:03.220Z,124.57
2023-02-17T04:11:32.189Z,121.82
2023-02-17T04:14:01.113Z,121.60
2023-02-17T04:16:29.600Z,120.53
2023-02-17T04:18:58.428Z,126.28
2023-02-17T04:21:27.002Z,117.10
2023-02-17T04:23:56.288Z,124.28
2023-02-17T04:26:24.829Z,124.35
2023-02-17T04:28:53.727Z,123.85
2023-02-17T04:31:22.360Z,125.55
2023-02-17T04:33:51.247Z,120.90
2023-02-17T04:36:19.737Z,118.30
2023-02-17T04:38:48.660Z,114.07
2023-02-17T04:41:17.183Z,115.75
2023-02-17T04:43:46.159Z,121.38
2023-02-17T04:46:14.845Z,122.68
2023-02-17T04:48:43.841Z,121.68
2023-02-17T04:51:12.637Z,112.47
2023-02-17T04:53:42.017Z,116.60
2023-02-17T04:56:10.661Z,119.18
2023-02-17T04:58:39.832Z,121.43
2023-02-17T05:01:08.270Z,117.32
2023-02-17T05:03:37.238Z,119.18
2023-02-17T05:06:06.791Z,114.32
2023-02-17T05:08:36.028Z,113.93
2023-02-17T05:11:04.965Z,108.93
2023-02-17T05:13:33.978Z,111.03
2023-02-17T05:16:02.759Z,108.32
2023-02-17T05:18:31.950Z,106.35
2023-02-17T05:21:00.699Z,106.18
2023-02-17T05:23:29.762Z,100.20
2023-02-17T05:25:58.522Z,95.03
2023-02-17T05:28:27.599Z,95.80
2023-02-17T05:30:56.272Z,93.55
2023-02-17T05:33:25.318Z,87.15
2023-02-17T05:35:53.985Z,89.28
2023-02-17T05:38:22.933Z,88.32
2023-02-17T05:40:51.561Z,77.93
2023-02-17T05:43:21.903Z,77.50
2023-02-17T05:45:50.660Z,74.28
2023-02-17T05:48:19.750Z,71.10
2023-02-17T05:50:48.381Z,72.82
2023-02-17T05:53:17.412Z,67.75
2023-02-17T05:55:47.914Z,70.03
2023-02-17T05:58:17.664Z,66.68
2023-02-17T06:00:49.358Z,65.50
2023-02-17T06:03:18.363Z,60.58
2023-02-17T06:05:47.177Z,60.80
2023-02-17T06:08:16.420Z,56.95
2023-02-17T06:10:45.022Z,60.78
2023-02-17T06:13:13.948Z,58.08
2023-02-17T06:15:42.632Z,57.45
2023-02-17T06:18:11.626Z,58.92
2023-02-17T06:20:40.372Z,56.60
2023-02-17T06:23:09.388Z,57.03
2023-02-17T06:25:38.003Z,53.20
2023-02-17T06:28:07.001Z,51.60
2023-02-17T06:30:35.731Z,55.67
2023-02-17T06:33:04.949Z,49.88
2023-02-17T06:35:33.759Z,56.08
2023-02-17T06:38:02.800Z,51.03
2023-02-17T06:40:31.508Z,49.97
2023-02-17T06:43:00.683Z,53.15
2023-02-17T06:45:29.451Z,46.72
2023-02-17T06:47:58.513Z,50.75
2023-02-17T06:50:27.149Z,49.22
2023-02-17T06:52:56.335Z,47.55
2023-02-17T06:55:24.938Z,45.65
2023-02-17T06:57:54.216Z,48.08
2023-02-17T07:00:23.125Z,46.40
2023-02-17T07:02:52.214Z,47.55
2023-02-17T07:05:21.057Z,45.83
2023-02-17T07:07:50.059Z,42.40
2023-02-17T07:10:18.889Z,43.20
2023-02-17T07:12:47.912Z,42.28
2023-02-17T07:15:16.603Z,43.47
2023-02-17T07:17:45.503Z,41.75
2023-02-17T07:20:14.686Z,38.80
2023-02-17T07:22:43.581Z,38.88
2023-02-17T07:25:12.292Z,40.53
2023-02-17T07:27:41.180Z,40.90
2023-02-17T07:30:10.453Z,37.42
2023-02-17T07:32:39.590Z,40.47
2023-02-17T07:35:08.544Z,44.78
2023-02-17T07:37:37.762Z,41.83
2023-02-17T07:40:07.619Z,40.78
2023-02-17T07:42:36.897Z,38.70
2023-02-17T07:45:06.316Z,36.38
2023-02-17T07:47:35.435Z,40.95
2023-02-17T07:50:04.036Z,40.58
2023-02-17T07:52:33.120Z,44.67
2023-02-17T07:55:01.851Z,38.78
2023-02-17T07:57:31.177Z,70.63
2023-02-17T07:59:59.762Z,46.35
2023-02-17T08:02:28.946Z,50.03
2023-02-17T08:04:57.730Z,47.03
2023-02-17T08:07:26.794Z,53.88
2023-02-17T08:10:13.867Z,56.05
2023-02-17T08:13:01.646Z,50.85
2023-02-17T08:15:34.496Z,55.70
2023-02-17T08:18:05.328Z,56.15
2023-02-17T08:20:35.325Z,56.03
2023-02-17T08:23:04.760Z,61.63
2023-02-17T08:25:35.175Z,55.42
2023-02-17T08:28:05.888Z,62.03
2023-02-17T08:30:37.185Z,76.00
2023-02-17T08:33:07.007Z,67.28
2023-02-17T08:35:35.789Z,70.32
2023-02-17T08:38:04.842Z,68.93
2023-02-17T08:40:33.504Z,68.15
2023-02-17T08:43:03.617Z,68.03
2023-02-17T08:45:32.420Z,74.75
2023-02-17T08:48:01.218Z,76.22
2023-02-17T08:50:29.907Z,77.68
2023-02-17T08:52:59.931Z,79.22
2023-02-17T08:55:33.455Z,78.22
2023-02-17T08:58:10.480Z,79.45
2023-02-17T09:00:38.908Z,78.47
2023-02-17T09:03:07.913Z,87.07
2023-02-17T09:05:38.056Z,79.95
2023-02-17T09:08:06.955Z,85.43
2023-02-17T09:10:35.504Z,85.15
2023-02-17T09:13:04.947Z,87.93
2023-02-17T09:15:33.551Z,87.15
2023-02-17T09:18:02.622Z,85.43
2023-02-17T09:20:31.090Z,92.75
2023-02-17T09:23:00.003Z,88.00
2023-02-17T09:25:28.549Z,103.97
2023-02-17T09:27:59.767Z,98.63
2023-02-17T09:30:28.504Z,103.13
2023-02-17T09:32:58.320Z,94.82
2023-02-17T09:35:26.888Z,101.90
2023-02-17T09:37:55.871Z,100.20
2023-02-17T09:40:42.050Z,108.13
2023-02-17T09:43:19.802Z,106.65
2023-02-17T09:45:54.450Z,107.97
2023-02-17T09:48:27.696Z,108.35
2023-02-17T09:51:01.560Z,113.85
2023-02-17T09:53:54.660Z,112.13
2023-02-17T09:56:31.515Z,104.03
2023-02-17T09:59:12.145Z,106.88
2023-02-17T10:01:40.557Z,108.95
2023-02-17T10:04:17.178Z,110.65
2023-02-17T10:06:56.182Z,115.13
2023-02-17T10:09:52.879Z,115.25
2023-02-17T10:12:27.248Z,107.28
2023-02-17T10:15:13.242Z,111.85
2023-02-17T10:18:16.941Z,115.35
2023-02-17T10:21:22.382Z,119.57
2023-02-17T10:23:52.192Z,118.47
2023-02-17T10:26:29.862Z,115.93
2023-02-17T10:29:03.255Z,114.05
2023-02-17T10:31:45.687Z,113.63
2023-02-17T10:34:36.362Z,116.93
2023-02-17T10:37:42.624Z,118.15
2023-02-17T10:40:29.642Z,125.65
2023-02-17T10:43:01.654Z,117.22
2023-02-17T10:45:38.458Z,119.63
2023-02-17T10:48:09.855Z,127.85
2023-02-17T10:50:38.453Z,130.57
2023-02-17T10:53:25.388Z,129.80
2023-02-17T10:56:02.893Z,125.78
2023-02-17T10:58:46.379Z,126.93
2023-02-17T11:01:14.843Z,121.00
2023-02-17T11:03:43.957Z,125.38
2023-02-17T11:06:22.707Z,127.85
2023-02-17T11:08:54.459Z,126.43
2023-02-17T11:11:28.296Z,123.68
2023-02-17T11:14:35.084Z,126.93
2023-02-17T11:17:15.362Z,120.68
2023-02-17T11:19:56.569Z,124.40
2023-02-17T11:22:46.551Z,129.48
2023-02-17T11:25:32.978Z,124.88
2023-02-17T11:28:08.517Z,123.82
2023-02-17T11:30:38.787Z,120.90
2023-02-17T11:33:15.380Z,116.88
2023-02-17T11:35:54.457Z,122.72
2023-02-17T11:38:26.228Z,111.38
2023-02-17T11:41:01.410Z,118.07
2023-02-17T11:43:31.089Z,120.20
2023-02-17T11:46:19.338Z,124.05
2023-02-17T11:49:22.182Z,118.25
2023-02-17T11:52:27.831Z,115.28
2023-02-17T11:55:28.536Z,113.82
2023-02-17T11:59:05.162Z,121.22
2023-02-17T12:01:51.628Z,121.15
2023-02-17T12:04:34.122Z,125.82
2023-02-17T12:07:52.158Z,123.10
2023-02-17T12:10:36.085Z,124.75
2023-02-17T12:13:50.462Z,121.45
2023-02-17T12:16:46.117Z,120.57
2023-02-17T12:19:32.340Z,128.95
2023-02-17T12:22:19.459Z,122.53
2023-02-17T12:25:21.799Z,129.73
2023-02-17T12:28:00.360Z,123.97
2023-02-17T12:31:01.064Z,121.50
2023-02-17T12:33:38.964Z,127.32
2023-02-17T12:36:13.167Z,119.63
2023-02-17T12:38:50.220Z,123.10
2023-02-17T12:41:39.876Z,118.32
2023-02-17T12:44:50.348Z,121.47
2023-02-17T12:48:08.831Z,118.20
2023-02-17T12:51:23.520Z,116.22
2023-02-17T12:56:39.006Z,104.28
2023-02-17T12:59:19.866Z,115.57
2023-02-17T13:02:01.546Z,111.53
2023-02-17T13:04:30.694Z,106.28
2023-02-17T13:07:44.071Z,112.20
2023-02-17T13:10:26.515Z,106.07
2023-02-17T13:13:10.042Z,103.45
2023-02-17T13:15:45.267Z,106.38
2023-02-17T13:18:32.272Z,103.10
2023-02-17T13:21:25.523Z,94.05
2023-02-17T13:24:04.196Z,96.90
2023-02-17T13:26:36.072Z,90.18
2023-02-17T13:29:20.015Z,90.00
2023-02-17T13:31:54.083Z,90.35
2023-02-17T13:34:32.392Z,86.35
2023-02-17T13:37:15.154Z,87.72
2023-02-17T13:39:44.620Z,83.75
2023-02-17T13:42:38.298Z,86.22
2023-02-17T13:45:28.732Z,77.95
2023-02-17T13:48:15.187Z,82.60
2023-02-17T13:50:59.198Z,81.50
2023-02-17T13:53:37.551Z,79.93
2023-02-17T13:56:12.758Z,72.88
2023-02-17T13:58:42.170Z,70.47
2023-02-17T14:01:19.526Z,64.60
2023-02-17T14:03:54.411Z,58.55
2023-02-17T14:06:40.790Z,36.22
2023-02-17T14:09:15.648Z,30.30
2023-02-17T14:11:44.841Z,24.95
2023-02-17T14:14:13.676Z,34.55
2023-02-17T14:16:46.366Z,29.83
2023-02-17T14:19:19.278Z,27.75
2023-02-17T14:22:05.095Z,26.90
2023-02-17T14:24:38.475Z,28.60
2023-02-17T14:27:09.837Z,28.52
2023-02-17T14:29:47.557Z,28.27
2023-02-17T14:32:38.276Z,37.13
2023-02-17T14:35:13.859Z,27.55
2023-02-17T14:37:43.145Z,34.95
2023-02-17T14:40:23.715Z,34.33
2023-02-17T14:42:53.405Z,29.63
2023-02-17T14:45:23.014Z,33.08
2023-02-17T14:47:52.189Z,36.38
2023-02-17T14:50:21.094Z,45.22
2023-02-17T14:52:52.632Z,37.63
2023-02-17T14:55:37.012Z,43.50
2023-02-17T14:58:06.445Z,45.28
2023-02-17T15:00:35.164Z,44.20
2023-02-17T15:03:04.409Z,45.90
2023-02-17T15:05:33.421Z,47.95
2023-02-17T15:08:02.515Z,48.30
2023-02-17T15:10:31.303Z,47.22
2023-02-17T15:13:00.432Z,48.95
2023-02-17T15:15:29.176Z,47.03
2023-02-17T15:17:58.313Z,48.55
2023-02-17T15:20:27.151Z,45.53
2023-02-17T15:22:56.287Z,46.65
2023-02-17T15:25:25.094Z,51.10
2023-02-17T15:27:54.191Z,47.58
2023-02-17T15:30:23.230Z,46.35
2023-02-17T15:32:52.328Z,43.53
2023-02-17T15:35:24.093Z,45.55
2023-02-17T15:37:53.863Z,50.08
2023-02-17T15:40:25.062Z,45.90
2023-02-17T15:43:03.592Z,46.17
2023-02-17T15:45:33.298Z,42.72
2023-02-17T15:48:27.396Z,50.60
2023-02-17T15:50:56.586Z,42.45
2023-02-17T15:53:25.842Z,43.30
2023-02-17T15:55:54.701Z,47.50
2023-02-17T15:58:23.861Z,42.05
2023-02-17T16:00:52.723Z,35.85
2023-02-17T16:03:21.979Z,47.83
2023-02-17T16:05:50.785Z,40.55
2023-02-17T16:08:20.225Z,39.88
2023-02-17T16:10:50.526Z,42.88
2023-02-17T16:13:20.036Z,41.58
2023-02-17T16:15:49.222Z,38.80
2023-02-17T16:18:23.387Z,35.95
2023-02-17T16:20:52.358Z,35.67
2023-02-17T16:23:21.606Z,38.92
2023-02-17T16:25:50.459Z,40.17
2023-02-17T16:28:21.319Z,43.47
2023-02-17T16:30:50.274Z,33.20
2023-02-17T16:33:19.775Z,34.88
2023-02-17T16:35:51.305Z,37.50
2023-02-17T16:38:23.436Z,34.40
2023-02-17T16:40:53.086Z,34.75
2023-02-17T16:43:27.863Z,34.17
2023-02-17T16:46:01.725Z,30.80
2023-02-17T16:48:32.499Z,31.85
2023-02-17T16:51:01.248Z,27.60
2023-02-17T16:53:30.429Z,30.80
2023-02-17T16:55:58.996Z,31.13
2023-02-17T16:58:27.858Z,31.92
2023-02-17T17:00:56.652Z,31.75
2023-02-17T17:03:25.693Z,29.65
2023-02-17T17:05:54.409Z,29.08
2023-02-17T17:08:24.968Z,31.95
2023-02-17T17:10:53.570Z,31.83
2023-02-17T17:13:22.467Z,33.50
2023-02-17T17:15:51.348Z,36.15
2023-02-17T17:18:21.558Z,33.10
2023-02-17T17:20:50.252Z,32.17
2023-02-17T17:23:19.394Z,34.38
2023-02-17T17:25:48.836Z,31.63
2023-02-17T17:28:19.146Z,29.15
2023-02-17T17:30:48.208Z,31.88
2023-02-17T17:33:17.367Z,33.80
2023-02-17T17:35:46.028Z,33.28
2023-02-17T17:38:19.729Z,28.48
2023-02-17T17:40:57.115Z,33.88
2023-02-17T17:43:26.128Z,31.45
2023-02-17T17:45:55.269Z,29.88
2023-02-17T17:48:24.167Z,34.45
2023-02-17T17:50:52.599Z,34.58
2023-02-17T17:53:21.407Z,35.40
2023-02-17T17:55:49.898Z,35.03
2023-02-17T17:58:18.850Z,44.55
2023-02-17T18:00:47.366Z,38.42
2023-02-17T18:03:16.133Z,37.10
2023-02-17T18:05:44.679Z,41.50
2023-02-17T18:08:14.303Z,38.47
2023-02-17T18:10:42.976Z,44.33
2023-02-17T18:13:11.957Z,41.25
2023-02-17T18:15:41.973Z,41.55
2023-02-17T18:18:12.356Z,42.00
2023-02-17T18:20:40.979Z,38.65
2023-02-17T18:23:09.776Z,45.40
2023-02-17T18:25:38.362Z,45.25
2023-02-17T18:28:07.107Z,50.95
2023-02-17T18:30:35.789Z,57.25
2023-02-17T18:33:04.642Z,52.28
2023-02-17T18:35:37.118Z,58.20
2023-02-17T18:38:05.950Z,57.38
2023-02-17T18:40:34.429Z,57.65
2023-02-17T18:43:03.235Z,59.33
2023-02-17T18:45:32.742Z,65.05
2023-02-17T18:48:01.654Z,66.35
2023-02-17T18:50:33.551Z,70.60
2023-02-17T18:53:05.200Z,68.20
2023-02-17T18:55:36.761Z,72.13
2023-02-17T18:58:05.741Z,66.70
2023-02-17T19:00:34.164Z,71.25
2023-02-17T19:03:02.945Z,68.80
2023-02-17T19:05:31.474Z,75.45
2023-02-17T19:08:00.308Z,79.68
2023-02-17T19:10:28.782Z,78.30
2023-02-17T19:12:57.633Z,80.57
2023-02-17T19:15:28.331Z,80.55
2023-02-17T19:17:58.303Z,80.22
2023-02-17T19:20:28.429Z,82.38
2023-02-17T19:22:57.856Z,83.70
2023-02-17T19:25:26.422Z,85.63
2023-02-17T19:27:55.411Z,80.38
2023-02-17T19:30:24.545Z,91.68
2023-02-17T19:32:53.569Z,85.32
2023-02-17T19:35:22.088Z,90.05
2023-02-17T19:37:51.214Z,82.40
2023-02-17T19:40:19.849Z,87.80
2023-02-17T19:42:48.808Z,89.53
2023-02-17T19:45:17.417Z,88.22
2023-02-17T19:47:46.422Z,86.70
2023-02-17T19:50:17.280Z,89.93
2023-02-17T19:52:46.975Z,87.68
2023-02-17T19:55:15.614Z,87.75
2023-02-17T19:57:44.819Z,90.65
2023-02-17T20:00:14.105Z,93.68
2023-02-17T20:02:43.003Z,92.63
2023-02-17T20:05:11.912Z,93.72
2023-02-17T20:07:40.936Z,92.20
2023-02-17T20:10:11.766Z,91.43
2023-02-17T20:12:40.680Z,87.57
2023-02-17T20:15:09.671Z,92.05
2023-02-17T20:17:39.488Z,94.10
2023-02-17T20:20:12.419Z,93.10
2023-02-17T20:22:41.493Z,93.35
2023-02-17T20:25:10.241Z,96.20
2023-02-17T20:27:39.322Z,90.40
2023-02-17T20:30:08.918Z,93.15
2023-02-17T20:32:38.070Z,97.68
2023-02-17T20:35:07.262Z,97.18
2023-02-17T20:37:36.316Z,95.38
2023-02-17T20:40:05.425Z,98.85
2023-02-17T20:42:34.441Z,98.97
2023-02-17T20:45:02.981Z,101.43
2023-02-17T20:47:31.712Z,99.80
2023-02-17T20:50:00.158Z,102.28
2023-02-17T20:52:28.840Z,96.63
2023-02-17T20:54:57.187Z,100.90
2023-02-17T20:57:26.872Z,95.63
2023-02-17T20:59:55.357Z,111.40
2023-02-17T21:02:24.202Z,110.85
2023-02-17T21:04:52.809Z,110.65
2023-02-17T21:07:21.558Z,101.18
2023-02-17T21:09:50.291Z,107.20
2023-02-17T21:12:21.770Z,103.85
2023-02-17T21:14:50.188Z,111.88
2023-02-17T21:17:19.268Z,107.07
2023-02-17T21:19:47.788Z,117.45
2023-02-17T21:22:16.510Z,112.10
2023-02-17T21:24:44.893Z,108.18
2023-02-17T21:27:13.764Z,107.13
2023-02-17T21:29:42.184Z,111.18
2023-02-17T21:32:10.952Z,110.97
2023-02-17T21:34:39.653Z,106.47
2023-02-17T21:37:09.333Z,105.78
2023-02-17T21:39:37.943Z,114.38
2023-02-17T21:42:06.665Z,106.53
2023-02-17T21:44:53.067Z,106.05
2023-02-17T21:47:22.579Z,105.53
2023-02-17T21:49:54.585Z,111.93
2023-02-17T21:52:23.346Z,108.22
2023-02-17T21:54:51.710Z,115.03
2023-02-17T21:57:20.625Z,107.90
2023-02-17T21:59:48.954Z,112.50
2023-02-17T22:02:17.903Z,112.85
2023-02-17T22:04:46.313Z,111.18
2023-02-17T22:07:15.143Z,107.80
2023-02-17T22:09:43.580Z,106.47
2023-02-17T22:12:12.394Z,114.53
2023-02-17T22:14:41.012Z,116.88
2023-02-17T22:17:10.110Z,113.47
2023-02-17T22:19:38.621Z,114.07
2023-02-17T22:22:07.490Z,106.70
2023-02-17T22:24:35.990Z,115.13
2023-02-17T22:27:04.760Z,114.88
2023-02-17T22:29:33.233Z,119.05
2023-02-17T22:32:02.154Z,117.05
2023-02-17T22:34:30.634Z,111.78
2023-02-17T22:36:59.394Z,120.93
2023-02-17T22:39:27.787Z,116.03
2023-02-17T22:41:56.590Z,119.90
2023-02-17T22:44:25.155Z,111.03
2023-02-17T22:46:53.842Z,116.03
2023-02-17T22:49:22.280Z,118.75
2023-02-17T22:51:50.976Z,121.63
2023-02-17T22:54:19.372Z,122.53
2023-02-17T22:56:48.109Z,115.13
2023-02-17T22:59:16.541Z,113.95
2023-02-17T23:01:46.693Z,114.22
2023-02-17T23:04:15.281Z,120.70
2023-02-17T23:06:44.433Z,124.05
2023-02-17T23:09:16.755Z,116.55
2023-02-17T23:11:55.289Z,129.32
2023-02-17T23:14:38.933Z,123.22
2023-02-17T23:17:10.480Z,119.75
2023-02-17T23:19:39.336Z,121.60
2023-02-17T23:22:16.097Z,120.22
2023-02-17T23:24:46.124Z,117.75
2023-02-17T23:27:14.949Z,117.68
2023-02-17T23:29:43.325Z,110.72
2023-02-17T23:32:11.973Z,120.82
2023-02-17T23:34:40.481Z,116.85
2023-02-17T23:37:09.181Z,115.82
2023-02-17T23:39:38.438Z,111.13
2023-02-17T23:42:07.505Z,110.65
2023-02-17T23:44:36.195Z,101.78
2023-02-17T23:47:05.389Z,103.57
2023-02-17T23:49:33.823Z,99.25
2023-02-17T23:52:02.970Z,96.68
2023-02-17T23:54:31.357Z,103.05
2023-02-17T23:57:00.120Z,101.15
2023-02-17T23:59:28.507Z,98.90
